Latest Weather Observations for Bickley

IDW60801

Issued at 4:03 am WST Tuesday 3 March 2015 (issued every 30 minutes, with the page automatically refreshed every 10 minutes)

About weather observations | Map of weather stations | Latest weather observations for WA | Other Formats
Station Details ID: 009240 Name: BICKLEY Lat: -32.01 Lon: 116.14 Height: 384.0 m
Data from the previous 72 hours. | See also: Recent months at Bickley
Date/Time
WST
Temp
°C
App
Temp
°C
Dew
Point
Rel
Hum
%
Delta-T
°C
Wind Press
QNH
hPa
Press
MSL
hPa
Rain
since 9 am
mm
Dir
 
Spd
km/h
Gust
km/h
Spd
kts
Gust
kts
03/04:00am 14.6 - - - - - - - - - - - 0.0
03/03:30am 14.5 - - - - - - - - - - - 0.0
03/03:00am 14.6 - - - - - - - - - - - 0.0
03/02:30am 14.7 - - - - - - - - - - - 0.0
03/02:00am 15.1 - - - - - - - - - - - 0.0
03/01:30am 15.3 - - - - - - - - - - - 0.0
03/01:00am 15.4 - - - - - - - - - - - 0.0
03/12:30am 15.5 - - - - - - - - - - - 0.0
03/12:00am 15.8 - - - - - - - - - - - 0.0
 
Date/Time
WST
Temp
°C
App
Temp
°C
Dew
Point
Rel
Hum
%
Delta-T
°C
Wind Press
QNH
hPa
Press
MSL
hPa
Rain
since 9 am
mm
Dir
 
Spd
km/h
Gust
km/h
Spd
kts
Gust
kts
02/11:30pm 16.1 - - - - - - - - - - - 0.0
02/11:00pm 16.6 - - - - - - - - - - - 0.0
02/10:30pm 17.0 - - - - - - - - - - - 0.0
02/10:00pm 17.4 - - - - - - - - - - - 0.0
02/09:30pm 17.8 - - - - - - - - - - - 0.0
02/09:00pm 18.5 - - - - - - - - - - - 0.0
02/08:30pm 18.3 - - - - - - - - - - - 0.0
02/08:00pm 18.6 - - - - - - - - - - - 0.0
02/07:30pm 18.8 - - - - - - - - - - - 0.0
02/07:00pm 19.2 - - - - - - - - - - - 0.0
02/06:30pm 20.0 - - - - - - - - - - - 0.0
02/06:00pm 21.0 - - - - - - - - - - - 0.0
02/05:30pm 21.9 - - - - - - - - - - - 0.0
02/05:00pm 22.3 - - - - - - - - - - - 0.0
02/04:30pm 23.1 - 9.8 43 7.4 - - - - - - - 0.0
02/04:00pm 23.7 - 11.1 45 7.2 - - - - - - - 0.0
02/03:30pm 23.4 - 11.1 46 7.0 - - - - - - - 0.0
02/03:00pm 23.1 - 11.2 47 6.8 - - - - - - - 0.0
02/02:30pm 23.4 - 11.1 46 7.0 - - - - - - - 0.0
02/02:00pm 24.1 - 11.1 44 7.4 - - - - - - - 0.0
02/01:30pm 24.2 - 11.2 44 7.4 - - - - - - - 0.0
02/01:00pm 23.5 - 11.2 46 7.0 - - - - - - - 0.0
02/12:30pm 23.7 - 11.1 45 7.2 - - - - - - - 0.0
02/12:00pm 22.6 - 11.0 48 6.5 - - - - - - - 0.0
02/11:30am 21.9 - 11.3 51 6.0 - - - - - - - 0.0
02/11:00am 21.5 - 11.2 52 5.8 - - - - - - - 0.0
02/10:30am 21.0 - 11.3 54 5.5 - - - - - - - 0.0
02/10:00am 19.4 - 11.4 60 4.5 - - - - - - - 0.0
02/09:30am 19.6 - 11.9 61 4.3 - - - - - - - 0.0
02/09:00am 19.1 - 11.9 63 4.1 - - - - - - - 0.0
02/08:30am 18.1 - 11.7 66 3.6 - - - - - - - 0.0
02/08:00am 17.5 - 12.0 70 3.1 - - - - - - - 0.0
02/07:30am 16.9 - 11.8 72 2.8 - - - - - - - 0.0
02/07:00am 16.2 - 11.8 75 2.4 - - - - - - - 0.0
02/06:30am 16.0 - 11.6 75 2.4 - - - - - - - 0.0
02/06:00am 16.1 - 11.7 75 2.4 - - - - - - - 0.0
02/05:30am 16.2 - 11.6 74 2.5 - - - - - - - 0.0
02/05:00am 16.1 - 11.5 74 2.5 - - - - - - - 0.0
02/04:30am 16.0 - 11.8 76 2.3 - - - - - - - 0.0
02/04:00am 16.1 - 11.9 76 2.3 - - - - - - - 0.0
02/03:30am 16.1 - 11.9 76 2.3 - - - - - - - 0.0
02/03:00am 16.5 - 12.3 76 2.4 - - - - - - - 0.0
02/02:30am 16.7 - 12.5 76 2.4 - - - - - - - 0.0
02/02:00am 16.9 - 12.4 75 2.5 - - - - - - - 0.0
02/01:30am 17.1 - 12.4 74 2.6 - - - - - - - 0.0
02/01:00am 17.7 - 12.4 71 3.0 - - - - - - - 0.0
02/12:30am 18.4 - 12.4 68 3.4 - - - - - - - 0.0
02/12:00am 18.7 - 12.2 66 3.7 - - - - - - - 0.0
 
Date/Time
WST
Temp
°C
App
Temp
°C
Dew
Point
Rel
Hum
%
Delta-T
°C
Wind Press
QNH
hPa
Press
MSL
hPa
Rain
since 9 am
mm
Dir
 
Spd
km/h
Gust
km/h
Spd
kts
Gust
kts
01/11:30pm 19.1 - 12.4 65 3.8 - - - - - - - 0.0
01/11:00pm 19.7 - 12.5 63 4.1 - - - - - - - 0.0
01/10:30pm 20.2 - 12.7 62 4.3 - - - - - - - 0.0
01/10:00pm 21.1 - 12.8 59 4.8 - - - - - - - 0.0
01/09:30pm 22.0 - 13.9 60 4.8 - - - - - - - 0.0
01/09:00pm 22.1 - 14.7 63 4.4 - - - - - - - 0.0
01/08:30pm 22.6 - 14.7 61 4.7 - - - - - - - 0.0
01/08:00pm 21.5 - - - - - - - - - - - 0.0
01/07:30pm 21.9 - - - - - - - - - - - 0.0
01/07:00pm 22.6 - -36.1 1 14.0 - - - - - - - 0.0
01/06:30pm 23.1 - - - - - - - - - - - 0.0
01/06:00pm 23.9 - - - - - - - - - - - 0.0
01/05:30pm 24.2 - - - - - - - - - - - 0.0
01/05:00pm 25.0 - - - - - - - - - - - 0.0
01/04:30pm 26.0 - - - - - - - - - - - 0.0
01/04:00pm 27.5 - - - - - - - - - - - 0.0
01/03:30pm 28.4 - - - - - - - - - - - 0.0
01/03:00pm 28.9 - - - - - - - - - - - 0.0
01/02:30pm 29.5 - - - - - - - - - - - 0.0
01/02:00pm 28.3 - - - - - - - - - - - 0.0
01/01:30pm 28.3 - - - - - - - - - - - 0.0
01/01:00pm 27.2 - - - - - - - - - - - 0.0
01/12:30pm 26.5 - - - - - - - - - - - 0.0
01/12:00pm 25.0 - - - - - - - - - - - 0.0
01/11:30am 23.5 - - - - - - - - - - - 0.0
01/11:00am 22.5 - - - - - - - - - - - 0.0
01/10:30am 23.0 - - - - - - - - - - - 0.0
01/10:00am 21.3 - - - - - - - - - - - 0.0
01/09:30am 21.8 - - - - - - - - - - - 0.0
01/09:00am 19.1 - - - - - - - - - - - 0.0
01/08:30am 17.9 - 11.2 65 3.7 - - - - - - - 0.0
01/08:00am 17.0 - 11.5 70 3.0 - - - - - - - 0.0
01/07:30am 14.8 - 11.0 78 2.1 - - - - - - - 0.0
01/07:00am 14.0 - 10.8 81 1.7 - - - - - - - 0.0
01/06:30am 13.5 - 10.3 81 1.7 - - - - - - - 0.0
01/06:00am 13.5 - 10.3 81 1.7 - - - - - - - 0.0
01/05:30am 13.6 - 10.2 80 1.8 - - - - - - - 0.0
01/05:00am 13.7 - 10.1 79 1.9 - - - - - - - 0.0
01/04:30am 13.9 - 10.1 78 2.0 - - - - - - - 0.0
01/04:00am 14.0 - 10.0 77 2.1 - - - - - - - 0.0
01/03:30am 14.2 - 10.0 76 2.2 - - - - - - - 0.0
01/03:00am 14.5 - 9.9 74 2.4 - - - - - - - 0.0
01/02:30am 14.9 - 9.9 72 2.7 - - - - - - - 0.0
01/02:00am 15.1 - 9.9 71 2.8 - - - - - - - 0.0
01/01:30am 15.6 - 9.9 69 3.0 - - - - - - - 0.0
01/01:00am 16.2 - 10.1 67 3.3 - - - - - - - 0.0
01/12:30am 16.7 - 9.9 64 3.6 - - - - - - - 0.0
01/12:00am 17.6 - 10.0 61 4.1 - - - - - - - 0.0
 
Date/Time
WST
Temp
°C
App
Temp
°C
Dew
Point
Rel
Hum
%
Delta-T
°C
Wind Press
QNH
hPa
Press
MSL
hPa
Rain
since 9 am
mm
Dir
 
Spd
km/h
Gust
km/h
Spd
kts
Gust
kts
28/11:30pm 18.5 - 10.1 58 4.6 - - - - - - - 0.0
28/11:00pm 19.4 - 9.9 54 5.2 - - - - - - - 0.0
28/10:30pm 20.3 - 9.2 49 6.0 - - - - - - - 0.0
28/10:00pm 21.1 - 7.0 40 7.3 - - - - - - - 0.0
28/09:30pm 21.6 - 6.3 37 7.9 - - - - - - - 0.0
28/09:00pm 21.8 - - - - - - - - - - - 0.0
28/08:30pm 21.7 - - - - - - - - - - - 0.0
28/08:00pm 21.9 - - - - - - - - - - - 0.0
28/07:30pm 22.1 - - - - - - - - - - - 0.0
28/07:00pm 23.0 - - - - - - - - - - - 0.0
28/06:30pm 24.5 - - - - - - - - - - - 0.0
28/06:00pm 25.7 - - - - - - - - - - - 0.0
28/05:30pm 26.7 - - - - - - - - - - - 0.0
28/05:00pm 26.6 - - - - - - - - - - - 0.0
28/04:30pm 27.3 - - - - - - - - - - - 0.0
28/04:00pm 27.8 - - - - - - - - - - - 0.0
28/03:30pm 27.3 - - - - - - - - - - - 0.0
28/03:00pm 27.1 - - - - - - - - - - - 0.0
28/02:30pm 26.6 - - - - - - - - - - - 0.0
28/02:00pm 26.1 - - - - - - - - - - - 0.0
28/01:30pm 26.0 - - - - - - - - - - - 0.0
28/01:00pm 25.6 - - - - - - - - - - - 0.0
28/12:30pm 25.0 - - - - - - - - - - - 0.0
28/12:00pm 23.9 - - - - - - - - - - - 0.0
28/11:30am 23.8 - - - - - - - - - - - 0.0
28/11:00am 23.4 - - - - - - - - - - - 0.0
28/10:30am 22.3 - - - - - - - - - - - 0.0
28/10:00am 21.2 - - - - - - - - - - - 0.0
28/09:30am 19.8 - 11.0 57 4.9 - - - - - - - 0.0
28/09:00am 19.7 - -26.6 3 12.4 - - - - - - - 0.0
28/08:30am 18.4 - 12.2 67 3.5 - - - - - - - 0.0
28/08:00am 17.1 - 12.0 72 2.8 - - - - - - - 0.0
28/07:30am 16.1 - 12.3 78 2.1 - - - - - - - 0.0
28/07:00am 15.2 - 11.8 80 1.9 - - - - - - - 0.0
28/06:30am 14.7 - 11.5 81 1.7 - - - - - - - 0.0
28/06:00am 14.6 - 11.2 80 1.8 - - - - - - - 0.0
28/05:30am 14.8 - 11.2 79 2.0 - - - - - - - 0.0
28/05:00am 15.2 - 11.8 80 1.9 - - - - - - - 0.0
28/04:30am 15.4 - 11.8 79 2.0 - - - - - - - 0.0

Other Formats:

Comma delimited format used in spreadsheet applications
http://www.bom.gov.au/fwo/IDW60801/IDW60801.95610.axf

JavaScript Object Notation format (JSON) in row-major order
http://www.bom.gov.au/fwo/IDW60801/IDW60801.95610.json